Time;durP1;ratioP1;P1;durP2;ratioP2;P2;SDS_P1;SDS_P2;PMS_P1;PMS_P2;Temp;Humidity;BMP_temperature;BMP_pressure;BME280_temperature;BME280_humidity;BME280_pressure;Samples;Min_cycle;Max_cycle;Signal;HPM_P1;HPM_P2
2023/07/06 00:01:45;;;;;;;9.63;5.00;;;17.00;89.10;;;;;;5113219;28;20032;-75
2023/07/06 00:04:12;;;;;;;10.23;5.50;;;16.90;88.70;;;;;;5111901;28;20031;-75
2023/07/06 00:06:38;;;;;;;7.88;5.32;;;16.90;89.10;;;;;;5113006;28;20078;-75
2023/07/06 00:09:08;;;;;;;11.13;5.93;;;16.80;89.60;;;;;;5111852;28;20479;-75
2023/07/06 00:11:36;;;;;;;8.27;6.00;;;16.70;90.40;;;;;;5113014;28;20027;-74
2023/07/06 00:14:03;;;;;;;8.23;5.25;;;16.60;90.40;;;;;;5112880;28;20031;-75
2023/07/06 00:16:29;;;;;;;11.50;5.47;;;16.50;90.60;;;;;;5112925;28;20025;-75
2023/07/06 00:18:58;;;;;;;10.90;5.68;;;16.40;90.70;;;;;;5112940;28;20034;-74
2023/07/06 00:21:24;;;;;;;9.13;5.30;;;16.40;91.00;;;;;;5111833;28;20023;-75
2023/07/06 00:23:50;;;;;;;10.15;5.53;;;16.20;91.10;;;;;;5111896;28;20103;-75
2023/07/06 00:26:20;;;;;;;9.63;6.05;;;16.20;91.30;;;;;;5111936;28;20021;-75
2023/07/06 00:28:49;;;;;;;9.30;5.43;;;16.20;91.40;;;;;;5114492;28;20012;-75
2023/07/06 00:31:50;;;;;;;10.32;5.57;;;16.10;91.40;;;;;;5115687;28;20028;-75
2023/07/06 00:34:07;;;;;;;10.77;5.57;;;16.10;91.40;;;;;;5115911;28;20028;-75
2023/07/06 00:36:37;;;;;;;11.77;5.82;;;16.10;91.50;;;;;;5098895;28;20095;-75
2023/07/06 00:39:03;;;;;;;10.25;5.40;;;16.00;91.60;;;;;;5098886;28;20081;-75
2023/07/06 00:41:32;;;;;;;9.18;5.68;;;16.00;91.50;;;;;;5116240;28;20032;-75
2023/07/06 00:43:59;;;;;;;9.82;5.20;;;16.00;91.60;;;;;;5115105;28;20020;-74
2023/07/06 00:46:33;;;;;;;10.05;5.47;;;16.00;91.60;;;;;;5116163;28;20059;-75
2023/07/06 00:49:01;;;;;;;8.57;5.32;;;16.00;91.50;;;;;;5116035;28;20020;-74
2023/07/06 00:51:34;;;;;;;9.70;5.10;;;16.00;91.40;;;;;;5114999;28;20020;-75
2023/07/06 00:54:05;;;;;;;11.27;5.63;;;15.90;91.50;;;;;;5114744;28;20073;-74
2023/07/06 00:56:37;;;;;;;10.20;5.30;;;15.80;91.50;;;;;;5116202;28;20016;-75
2023/07/06 00:59:04;;;;;;;6.73;4.57;;;15.80;91.50;;;;;;5115979;28;20035;-74
2023/07/06 01:01:32;;;;;;;8.25;5.28;;;15.80;92.00;;;;;;5115925;28;20084;-75
2023/07/06 01:03:59;;;;;;;7.97;4.70;;;15.90;91.60;;;;;;5115803;28;20028;-74
2023/07/06 01:06:37;;;;;;;12.02;5.07;;;15.80;91.20;;;;;;5114758;28;20048;-74
2023/07/06 01:09:04;;;;;;;7.80;4.63;;;15.90;91.00;;;;;;5115645;28;20024;-75
2023/07/06 01:11:31;;;;;;;8.85;5.05;;;15.90;91.00;;;;;;5115716;28;20020;-74
2023/07/06 01:13:57;;;;;;;8.45;4.60;;;15.80;90.90;;;;;;5115591;28;20028;-75
2023/07/06 01:16:38;;;;;;;8.32;4.57;;;15.80;91.00;;;;;;5114695;28;20017;-75
2023/07/06 01:19:09;;;;;;;8.05;4.70;;;15.70;91.10;;;;;;5115417;28;20189;-75
2023/07/06 01:21:54;;;;;;;9.13;4.70;;;15.80;91.10;;;;;;5115518;28;20063;-75
2023/07/06 01:24:51;;;;;;;6.72;4.60;;;15.80;91.10;;;;;;5114403;28;20027;-74
2023/07/06 01:27:16;;;;;;;7.18;4.38;;;15.80;91.20;;;;;;5114533;28;20053;-74
2023/07/06 01:30:24;;;;;;;7.30;4.72;;;15.70;91.00;;;;;;5114236;28;20032;-74
2023/07/06 01:33:12;;;;;;;11.57;4.70;;;15.80;90.90;;;;;;5092678;28;20028;-74
2023/07/06 01:36:10;;;;;;;8.18;5.40;;;15.80;90.90;;;;;;5113754;28;20040;-75
2023/07/06 01:38:37;;;;;;;9.07;5.13;;;15.80;90.70;;;;;;5115296;28;20028;-74
2023/07/06 01:41:06;;;;;;;9.00;4.95;;;15.70;90.70;;;;;;5114055;28;20103;-75
2023/07/06 01:43:32;;;;;;;9.60;5.00;;;15.70;90.70;;;;;;5115112;28;20044;-75
2023/07/06 01:45:58;;;;;;;10.63;5.13;;;15.60;90.80;;;;;;5115003;28;20031;-75
2023/07/06 01:48:24;;;;;;;7.22;3.92;;;15.60;90.70;;;;;;5114010;28;20028;-75
2023/07/06 01:51:19;;;;;;;8.48;4.10;;;15.70;90.60;;;;;;5114874;28;20040;-75
2023/07/06 01:53:52;;;;;;;5.75;3.90;;;15.70;90.40;;;;;;5107490;28;20040;-75
2023/07/06 01:56:29;;;;;;;10.77;3.85;;;15.70;90.40;;;;;;5113797;28;20022;-75
2023/07/06 01:59:05;;;;;;;8.80;3.80;;;15.70;90.20;;;;;;5114755;28;20031;-75
2023/07/06 02:01:40;;;;;;;6.93;3.60;;;15.60;90.20;;;;;;5114906;28;20083;-75
2023/07/06 02:04:07;;;;;;;5.90;3.50;;;15.60;90.20;;;;;;5114678;28;20027;-75
2023/07/06 02:06:36;;;;;;;5.35;3.05;;;15.50;90.20;;;;;;5114670;28;20024;-75
2023/07/06 02:09:04;;;;;;;9.43;3.70;;;15.60;90.10;;;;;;5113470;28;20016;-75
2023/07/06 02:11:30;;;;;;;6.95;4.00;;;15.50;90.10;;;;;;5113663;28;20020;-75
2023/07/06 02:13:56;;;;;;;6.55;3.47;;;15.50;90.00;;;;;;5114450;28;20024;-74
2023/07/06 02:16:22;;;;;;;7.68;3.40;;;15.50;90.00;;;;;;5113579;28;20034;-75
2023/07/06 02:18:47;;;;;;;8.05;3.42;;;15.50;90.00;;;;;;5114359;28;20032;-75
2023/07/06 02:21:14;;;;;;;5.55;3.15;;;15.50;89.90;;;;;;5113485;28;20024;-75
2023/07/06 02:23:39;;;;;;;5.45;3.40;;;15.50;90.00;;;;;;5114284;28;20016;-74
2023/07/06 02:26:05;;;;;;;8.30;3.40;;;15.50;90.40;;;;;;5114319;28;20036;-75
2023/07/06 02:28:31;;;;;;;8.07;3.35;;;15.50;90.00;;;;;;5113371;28;20032;-75
2023/07/06 02:30:58;;;;;;;5.47;3.40;;;15.40;90.10;;;;;;5113057;28;20039;-75
2023/07/06 02:33:25;;;;;;;7.45;3.70;;;15.40;90.10;;;;;;5114052;28;20032;-75
2023/07/06 02:35:51;;;;;;;6.35;3.45;;;15.30;90.20;;;;;;5112943;28;20044;-74
2023/07/06 02:38:19;;;;;;;12.20;3.70;;;15.30;90.20;;;;;;5112957;28;20078;-75
2023/07/06 02:40:46;;;;;;;6.85;3.85;;;15.40;90.10;;;;;;5113106;28;20523;-74
2023/07/06 02:43:12;;;;;;;6.15;3.00;;;15.40;90.10;;;;;;5112835;28;20020;-75
2023/07/06 02:45:38;;;;;;;6.70;3.20;;;15.30;90.10;;;;;;5113966;28;20570;-75
2023/07/06 02:48:04;;;;;;;5.22;3.38;;;15.30;90.00;;;;;;5113892;28;20028;-75
2023/07/06 02:50:30;;;;;;;6.28;3.47;;;15.30;90.00;;;;;;5112611;28;20031;-75
2023/07/06 02:52:56;;;;;;;7.13;3.88;;;15.20;90.10;;;;;;5112764;28;20024;-74
2023/07/06 02:55:23;;;;;;;6.78;3.25;;;15.20;90.10;;;;;;5095879;28;20036;-75
2023/07/06 02:57:48;;;;;;;7.88;3.35;;;15.30;90.10;;;;;;5112799;28;20024;-75
2023/07/06 03:00:16;;;;;;;8.10;3.72;;;15.30;90.00;;;;;;5112661;28;20035;-75
2023/07/06 03:02:43;;;;;;;7.38;3.83;;;15.30;89.90;;;;;;5112665;28;20051;-75
2023/07/06 03:05:10;;;;;;;9.00;3.85;;;15.20;90.00;;;;;;5113597;28;20024;-74
2023/07/06 03:07:36;;;;;;;10.40;3.58;;;15.20;90.00;;;;;;5113678;28;20028;-74
2023/07/06 03:10:03;;;;;;;5.90;3.17;;;15.30;90.00;;;;;;5095510;28;20032;-75
2023/07/06 03:12:37;;;;;;;6.38;3.42;;;15.20;89.80;;;;;;5096035;28;20020;-75
2023/07/06 03:15:15;;;;;;;7.60;3.75;;;15.20;89.90;;;;;;5112693;28;20023;-75
2023/07/06 03:17:41;;;;;;;8.73;3.80;;;15.10;89.80;;;;;;5096265;28;20027;-74
2023/07/06 03:20:13;;;;;;;7.57;3.45;;;15.10;90.00;;;;;;5095609;28;20024;-75
2023/07/06 03:22:40;;;;;;;8.63;3.60;;;15.20;90.00;;;;;;5112541;28;20028;-75
2023/07/06 03:25:09;;;;;;;8.88;3.55;;;15.20;89.60;;;;;;5112271;28;20028;-75
2023/07/06 03:27:36;;;;;;;6.82;3.80;;;15.10;89.60;;;;;;5113457;28;20083;-75
2023/07/06 03:30:04;;;;;;;6.10;3.17;;;15.10;90.00;;;;;;5112321;28;20026;-75
2023/07/06 03:32:30;;;;;;;7.90;3.40;;;15.10;89.80;;;;;;5113390;28;20091;-75
2023/07/06 03:34:56;;;;;;;7.90;3.35;;;15.00;90.00;;;;;;5113247;28;20046;-75
2023/07/06 03:37:23;;;;;;;6.32;3.72;;;15.10;90.00;;;;;;5112326;28;20111;-75
2023/07/06 03:39:49;;;;;;;5.57;3.40;;;15.10;89.90;;;;;;5112303;28;20031;-75
2023/07/06 03:42:16;;;;;;;6.85;3.20;;;15.10;90.40;;;;;;5112386;28;20040;-75
2023/07/06 03:44:43;;;;;;;7.13;4.10;;;15.10;90.00;;;;;;5113368;28;20024;-75
2023/07/06 03:47:10;;;;;;;6.38;2.97;;;15.00;90.00;;;;;;5095498;28;20055;-75
2023/07/06 03:49:36;;;;;;;6.57;3.80;;;15.00;90.20;;;;;;5112077;28;20041;-75
2023/07/06 03:52:03;;;;;;;8.57;4.00;;;15.00;90.40;;;;;;5095365;28;20123;-75
2023/07/06 03:54:30;;;;;;;9.05;3.83;;;15.00;90.30;;;;;;5112173;28;20028;-75
2023/07/06 03:56:56;;;;;;;7.07;4.20;;;14.90;90.50;;;;;;5113203;28;20020;-75
2023/07/06 03:59:22;;;;;;;8.00;3.70;;;14.80;90.60;;;;;;5112121;28;20111;-74
2023/07/06 04:01:48;;;;;;;7.57;3.55;;;14.80;90.70;;;;;;5112147;28;20028;-75
2023/07/06 04:04:15;;;;;;;8.48;3.60;;;14.80;90.90;;;;;;5114719;28;20073;-75
2023/07/06 04:06:41;;;;;;;8.00;3.25;;;14.90;90.80;;;;;;5116062;28;20127;-75
2023/07/06 04:09:09;;;;;;;10.52;3.97;;;14.90;90.80;;;;;;5116904;28;20020;-74
2023/07/06 04:11:36;;;;;;;8.15;3.50;;;14.90;90.90;;;;;;5115848;28;20024;-75
2023/07/06 04:14:03;;;;;;;5.13;3.78;;;14.90;90.90;;;;;;5116810;28;20038;-75
2023/07/06 04:16:29;;;;;;;5.90;3.67;;;14.90;90.90;;;;;;5115779;28;20016;-75
2023/07/06 04:18:55;;;;;;;9.85;4.15;;;14.80;91.10;;;;;;5115686;28;20028;-75
2023/07/06 04:21:22;;;;;;;9.18;3.83;;;14.80;91.30;;;;;;5115697;28;20028;-76
2023/07/06 04:23:48;;;;;;;5.55;3.15;;;14.70;91.40;;;;;;5115642;28;20032;-76
2023/07/06 04:26:15;;;;;;;8.52;3.55;;;14.70;91.60;;;;;;5116631;28;20020;-75
2023/07/06 04:28:42;;;;;;;8.52;3.58;;;14.60;91.80;;;;;;5115625;28;20034;-75
2023/07/06 04:31:10;;;;;;;7.63;3.90;;;14.70;91.70;;;;;;5116480;28;20083;-76
2023/07/06 04:33:36;;;;;;;10.77;3.80;;;14.80;91.60;;;;;;5115401;28;20418;-76
2023/07/06 04:36:02;;;;;;;6.57;3.50;;;14.80;91.80;;;;;;5115315;28;20040;-76
2023/07/06 04:38:29;;;;;;;5.63;3.50;;;14.70;91.80;;;;;;5115377;28;20040;-74
2023/07/06 04:40:56;;;;;;;8.45;3.72;;;14.70;91.90;;;;;;5115243;28;20059;-74
2023/07/06 04:43:22;;;;;;;8.40;4.05;;;14.80;91.70;;;;;;5115188;28;20115;-74
2023/07/06 04:45:48;;;;;;;10.02;4.40;;;14.80;91.90;;;;;;5098406;28;20039;-74
2023/07/06 04:48:16;;;;;;;7.82;4.03;;;14.70;92.00;;;;;;5098144;28;20028;-75
2023/07/06 04:50:43;;;;;;;9.13;3.70;;;14.70;92.00;;;;;;5115023;28;20028;-75
2023/07/06 04:53:09;;;;;;;11.00;3.97;;;14.70;92.20;;;;;;5116068;28;20020;-76
2023/07/06 04:55:35;;;;;;;9.18;3.65;;;14.60;92.30;;;;;;5116061;28;20020;-75
2023/07/06 04:58:01;;;;;;;8.60;3.80;;;14.70;92.30;;;;;;5115952;28;20027;-74
2023/07/06 05:00:30;;;;;;;8.18;3.95;;;14.70;92.30;;;;;;5115946;28;20016;-74
2023/07/06 05:02:58;;;;;;;9.20;4.10;;;14.70;92.20;;;;;;5115017;28;20416;-75
2023/07/06 05:05:25;;;;;;;7.10;3.95;;;14.80;92.10;;;;;;5115004;28;20024;-74
2023/07/06 05:07:52;;;;;;;8.63;4.10;;;14.80;92.00;;;;;;5115663;28;20023;-74
2023/07/06 05:10:18;;;;;;;8.80;3.85;;;14.90;92.00;;;;;;5114552;28;20058;-74
2023/07/06 05:12:44;;;;;;;7.63;3.70;;;14.90;92.10;;;;;;5115693;28;20025;-75
2023/07/06 05:15:10;;;;;;;10.43;4.20;;;14.90;92.00;;;;;;5115441;28;20037;-75
2023/07/06 05:17:38;;;;;;;9.77;4.10;;;14.90;92.10;;;;;;5114576;28;20027;-76
2023/07/06 05:20:10;;;;;;;7.75;3.78;;;15.00;92.10;;;;;;5114583;28;20150;-75
2023/07/06 05:22:39;;;;;;;10.10;4.35;;;15.00;92.20;;;;;;5115553;28;20032;-75
2023/07/06 05:25:09;;;;;;;8.00;3.50;;;15.00;92.10;;;;;;5115617;28;20032;-75
2023/07/06 05:27:35;;;;;;;8.38;3.72;;;15.00;92.10;;;;;;5097498;28;20031;-75
2023/07/06 05:30:01;;;;;;;13.02;4.78;;;15.00;92.10;;;;;;5114429;28;20391;-75
2023/07/06 05:32:27;;;;;;;8.05;3.92;;;15.00;92.10;;;;;;5097373;28;20024;-75
2023/07/06 05:34:53;;;;;;;11.07;4.78;;;15.00;92.20;;;;;;5114327;28;20084;-74
2023/07/06 05:37:18;;;;;;;11.00;4.60;;;14.90;92.50;;;;;;5114169;28;20040;-74
2023/07/06 05:39:44;;;;;;;9.15;3.78;;;15.00;92.40;;;;;;5097301;28;20028;-75
2023/07/06 05:42:11;;;;;;;14.45;4.30;;;15.00;92.40;;;;;;5115154;28;20033;-74
2023/07/06 05:44:37;;;;;;;11.32;4.40;;;15.10;92.40;;;;;;5114208;28;20086;-74
2023/07/06 05:47:02;;;;;;;11.35;4.38;;;15.00;92.50;;;;;;5114116;28;20028;-75
2023/07/06 05:49:28;;;;;;;11.55;4.57;;;15.10;92.70;;;;;;5114890;28;20055;-75
2023/07/06 05:51:54;;;;;;;15.13;5.07;;;15.20;92.60;;;;;;5113890;28;20042;-75
2023/07/06 05:54:20;;;;;;;10.50;4.88;;;15.10;92.70;;;;;;5113949;28;20013;-76
2023/07/06 05:56:46;;;;;;;14.95;5.70;;;15.20;92.70;;;;;;5113873;28;20020;-75
2023/07/06 05:59:12;;;;;;;15.05;5.57;;;15.30;92.80;;;;;;5097090;28;20020;-75
2023/07/06 06:01:38;;;;;;;17.95;6.45;;;15.30;92.80;;;;;;5113839;28;20027;-75
2023/07/06 06:04:04;;;;;;;18.17;6.65;;;15.30;93.10;;;;;;5113808;28;20497;-75
2023/07/06 06:06:46;;;;;;;14.95;7.00;;;15.40;93.00;;;;;;5114636;28;20024;-75
2023/07/06 06:09:12;;;;;;;22.23;8.40;;;15.40;93.10;;;;;;5114620;28;20430;-76
2023/07/06 06:11:38;;;;;;;16.27;7.53;;;15.50;93.10;;;;;;5113548;28;20016;-75
2023/07/06 06:14:04;;;;;;;20.80;7.05;;;15.50;93.50;;;;;;5113566;28;20028;-75
2023/07/06 06:16:32;;;;;;;16.33;7.68;;;15.50;93.10;;;;;;5114456;28;20027;-75
2023/07/06 06:19:01;;;;;;;19.90;7.32;;;15.60;93.00;;;;;;5114444;28;20081;-77
2023/07/06 06:21:27;;;;;;;21.67;8.18;;;15.60;93.20;;;;;;5114425;28;20020;-76
2023/07/06 06:23:53;;;;;;;23.13;8.15;;;15.60;92.90;;;;;;5113309;28;20016;-76
2023/07/06 06:26:19;;;;;;;23.17;8.63;;;15.60;92.80;;;;;;5112673;28;20028;-76
2023/07/06 06:28:45;;;;;;;19.25;8.63;;;15.50;93.00;;;;;;5114273;28;20070;-76
2023/07/06 06:31:12;;;;;;;21.55;8.45;;;15.60;93.00;;;;;;5096061;28;20035;-76
2023/07/06 06:33:37;;;;;;;24.67;8.88;;;15.50;93.20;;;;;;5113054;28;20020;-76
2023/07/06 06:36:04;;;;;;;22.75;9.30;;;15.60;93.20;;;;;;5096065;28;20055;-76
2023/07/06 06:38:34;;;;;;;24.35;10.07;;;15.60;93.30;;;;;;5096172;28;20024;-76
2023/07/06 06:41:02;;;;;;;25.00;9.63;;;15.60;93.80;;;;;;5096810;28;20028;-76
2023/07/06 06:43:28;;;;;;;22.95;10.13;;;15.50;93.50;;;;;;5114027;28;20079;-77
2023/07/06 06:45:54;;;;;;;23.88;9.10;;;15.70;93.60;;;;;;5096058;28;20035;-77
2023/07/06 06:48:20;;;;;;;20.67;9.15;;;15.70;93.40;;;;;;5112887;28;20047;-77
2023/07/06 06:50:46;;;;;;;20.02;10.10;;;15.70;93.50;;;;;;5095854;28;20090;-77
2023/07/06 06:53:12;;;;;;;21.38;10.68;;;15.80;93.30;;;;;;5112869;28;20020;-77
2023/07/06 06:55:37;;;;;;;23.35;10.70;;;15.80;93.40;;;;;;5112857;28;20024;-77
2023/07/06 06:58:03;;;;;;;27.50;11.07;;;15.80;93.50;;;;;;5079226;28;20020;-77
2023/07/06 07:00:29;;;;;;;26.40;10.90;;;15.90;93.70;;;;;;5095816;28;20380;-78
2023/07/06 07:02:57;;;;;;;24.92;10.75;;;15.80;93.60;;;;;;5112880;28;20032;-77
2023/07/06 07:05:23;;;;;;;24.20;11.48;;;15.90;93.50;;;;;;5112764;28;20031;-77
2023/07/06 07:07:51;;;;;;;27.55;11.13;;;15.90;93.40;;;;;;5112655;28;20028;-77
2023/07/06 07:10:17;;;;;;;24.95;11.55;;;16.00;93.30;;;;;;5079439;28;20028;-77
2023/07/06 07:12:43;;;;;;;26.88;11.95;;;16.00;93.10;;;;;;5112671;28;20024;-77
2023/07/06 07:15:12;;;;;;;28.58;11.48;;;16.00;93.20;;;;;;5113561;28;20020;-77
2023/07/06 07:17:38;;;;;;;25.17;11.48;;;16.00;93.20;;;;;;5112668;28;20436;-77
2023/07/06 07:20:05;;;;;;;22.70;11.15;;;16.00;93.10;;;;;;5095769;28;20051;-76
2023/07/06 07:22:31;;;;;;;24.13;11.63;;;16.10;93.00;;;;;;5113486;28;20519;-77
2023/07/06 07:24:58;;;;;;;23.30;11.25;;;16.10;92.80;;;;;;5112441;28;20039;-77
2023/07/06 07:27:25;;;;;;;25.23;11.15;;;16.10;92.70;;;;;;5095753;28;20039;-77
2023/07/06 07:29:53;;;;;;;25.02;12.27;;;16.10;92.80;;;;;;5113327;28;20027;-76
2023/07/06 07:32:20;;;;;;;27.17;11.93;;;16.20;93.10;;;;;;5095593;28;20046;-77
2023/07/06 07:34:50;;;;;;;27.33;12.70;;;16.20;92.90;;;;;;5113312;28;20020;-77
2023/07/06 07:37:18;;;;;;;25.52;12.57;;;16.20;93.30;;;;;;5112334;28;20051;-77
2023/07/06 07:39:45;;;;;;;28.55;13.52;;;16.40;93.40;;;;;;5117054;28;20054;-77
2023/07/06 07:42:12;;;;;;;32.08;14.07;;;16.50;93.30;;;;;;5117483;28;20048;-78
2023/07/06 07:44:38;;;;;;;24.85;13.07;;;16.60;93.60;;;;;;5117411;28;20054;-77
2023/07/06 07:47:05;;;;;;;23.55;12.63;;;16.60;93.10;;;;;;5099500;28;20032;-77
2023/07/06 07:49:30;;;;;;;23.35;11.95;;;16.60;93.10;;;;;;5117259;28;20030;-77
2023/07/06 07:51:56;;;;;;;21.65;11.77;;;16.70;92.80;;;;;;5116298;28;20114;-77
2023/07/06 07:54:23;;;;;;;28.83;12.25;;;16.80;92.80;;;;;;5116222;28;20020;-76
2023/07/06 07:56:53;;;;;;;29.52;13.68;;;16.90;92.70;;;;;;5117292;28;20102;-77
2023/07/06 07:59:20;;;;;;;23.35;11.07;;;17.00;92.90;;;;;;5099950;28;20028;-77
2023/07/06 08:01:46;;;;;;;22.77;11.27;;;17.00;92.40;;;;;;5116248;28;20043;-77
2023/07/06 08:04:14;;;;;;;26.05;14.05;;;17.00;92.30;;;;;;5099277;28;20020;-77
2023/07/06 08:06:40;;;;;;;24.75;11.93;;;17.10;92.60;;;;;;5099362;28;20032;-76
2023/07/06 08:09:07;;;;;;;25.13;11.93;;;17.00;92.60;;;;;;5115909;28;20042;-77
2023/07/06 08:11:36;;;;;;;20.27;11.63;;;17.10;92.80;;;;;;5082681;28;20475;-77
2023/07/06 08:14:04;;;;;;;20.10;11.38;;;17.10;92.70;;;;;;5115818;28;20051;-77
2023/07/06 08:16:32;;;;;;;19.02;10.50;;;17.20;92.60;;;;;;5098983;28;20012;-77
2023/07/06 08:18:58;;;;;;;23.30;11.25;;;17.20;92.20;;;;;;5115740;28;20425;-77
2023/07/06 08:21:24;;;;;;;22.17;10.82;;;17.30;92.60;;;;;;5098743;28;20024;-77
2023/07/06 08:23:50;;;;;;;20.25;10.70;;;17.40;92.40;;;;;;5082062;28;20020;-77
2023/07/06 08:26:17;;;;;;;17.27;9.60;;;17.40;92.10;;;;;;5115634;28;20028;-76
2023/07/06 08:28:46;;;;;;;22.13;10.13;;;17.50;91.70;;;;;;5115560;28;20046;-77
2023/07/06 08:31:13;;;;;;;16.20;9.45;;;17.50;92.10;;;;;;5115443;28;20051;-76
2023/07/06 08:33:39;;;;;;;21.55;10.13;;;17.60;91.40;;;;;;5116314;28;20092;-78
2023/07/06 08:36:09;;;;;;;18.55;9.02;;;17.60;91.30;;;;;;5098255;28;20041;-77
2023/07/06 08:38:37;;;;;;;21.08;9.75;;;17.70;91.20;;;;;;5116392;28;20020;-77
2023/07/06 08:41:12;;;;;;;21.13;9.88;;;17.70;91.50;;;;;;5098716;28;20024;-77
2023/07/06 08:43:39;;;;;;;21.73;9.40;;;17.80;91.30;;;;;;5115413;28;20048;-77
2023/07/06 08:46:05;;;;;;;12.35;7.75;;;18.00;91.20;;;;;;5115305;28;20029;-77
2023/07/06 08:48:34;;;;;;;15.23;8.15;;;18.00;90.70;;;;;;5097859;28;20032;-77
2023/07/06 08:51:03;;;;;;;14.82;9.23;;;18.00;90.80;;;;;;5116027;28;20031;-77
2023/07/06 08:53:33;;;;;;;15.77;9.18;;;18.00;90.60;;;;;;5116117;28;20012;-77
2023/07/06 08:56:01;;;;;;;15.40;8.50;;;18.10;90.90;;;;;;5116133;28;20050;-78
2023/07/06 08:58:32;;;;;;;15.82;8.35;;;18.10;90.40;;;;;;5116011;28;20016;-77
2023/07/06 09:01:10;;;;;;;14.27;7.80;;;18.20;90.10;;;;;;5114979;28;20059;-77
2023/07/06 09:03:46;;;;;;;16.30;8.32;;;18.20;90.00;;;;;;5114915;28;20040;-77
2023/07/06 09:06:26;;;;;;;11.90;7.03;;;18.10;89.10;;;;;;5116054;28;20078;-77
2023/07/06 09:09:03;;;;;;;13.00;6.88;;;18.10;88.30;;;;;;5114979;28;20016;-77
2023/07/06 09:11:31;;;;;;;13.50;6.97;;;18.10;88.40;;;;;;5110043;28;20054;-77
2023/07/06 09:14:00;;;;;;;13.75;7.47;;;18.20;88.30;;;;;;5114650;28;20035;-77
2023/07/06 09:16:26;;;;;;;12.02;7.40;;;18.30;88.70;;;;;;5115649;28;20035;-75
2023/07/06 09:18:52;;;;;;;12.23;6.85;;;18.30;87.80;;;;;;5097938;28;20099;-76
2023/07/06 09:21:25;;;;;;;12.90;6.75;;;18.30;87.40;;;;;;5115555;28;20027;-77
2023/07/06 09:23:51;;;;;;;11.07;6.68;;;18.30;87.80;;;;;;5114481;28;20020;-76
2023/07/06 09:26:33;;;;;;;14.30;6.43;;;18.40;87.90;;;;;;5114602;28;20031;-77
2023/07/06 09:29:21;;;;;;;14.45;6.47;;;18.50;86.50;;;;;;5115411;28;20020;-77
2023/07/06 09:31:47;;;;;;;10.43;5.85;;;18.50;87.70;;;;;;5115411;28;20031;-77
2023/07/06 09:34:27;;;;;;;13.60;7.13;;;18.50;87.50;;;;;;5097399;28;20031;-77
2023/07/06 09:36:52;;;;;;;13.48;6.78;;;18.70;88.40;;;;;;5115157;28;20047;-77
2023/07/06 09:39:18;;;;;;;13.63;6.57;;;18.70;85.50;;;;;;5097377;28;20050;-75
2023/07/06 09:41:45;;;;;;;13.63;6.65;;;18.70;85.60;;;;;;5097263;28;20502;-77
2023/07/06 09:44:23;;;;;;;15.30;6.65;;;18.80;86.10;;;;;;5114139;28;20032;-77
2023/07/06 09:46:49;;;;;;;13.38;6.55;;;18.90;86.20;;;;;;5114097;28;20020;-77
2023/07/06 09:49:18;;;;;;;13.90;7.00;;;18.80;85.80;;;;;;5114043;28;20032;-77
2023/07/06 09:51:55;;;;;;;12.52;6.22;;;18.90;84.70;;;;;;5115072;28;20059;-77
2023/07/06 09:54:32;;;;;;;9.85;5.20;;;19.10;85.40;;;;;;5114980;28;20020;-77
2023/07/06 09:56:59;;;;;;;12.40;6.80;;;19.20;83.80;;;;;;5115024;28;20020;-76
2023/07/06 09:59:25;;;;;;;13.13;6.38;;;19.20;83.90;;;;;;5096996;28;20028;-77
2023/07/06 10:02:15;;;;;;;11.65;6.28;;;19.40;83.50;;;;;;5112919;28;20024;-77
2023/07/06 10:05:01;;;;;;;11.15;5.85;;;19.40;81.50;;;;;;5113787;28;20032;-75
2023/07/06 10:07:34;;;;;;;12.85;6.43;;;19.40;82.50;;;;;;5113725;28;20044;-75
2023/07/06 10:10:20;;;;;;;13.70;6.75;;;19.50;82.70;;;;;;5113499;28;20054;-76
2023/07/06 10:13:18;;;;;;;11.60;5.57;;;19.60;83.50;;;;;;5114588;28;20020;-76
2023/07/06 10:15:55;;;;;;;11.07;6.15;;;19.90;82.70;;;;;;5113590;28;20024;-76
2023/07/06 10:18:22;;;;;;;10.50;5.55;;;20.00;81.50;;;;;;5114494;28;20016;-76
2023/07/06 10:21:04;;;;;;;12.60;5.82;;;20.10;82.30;;;;;;5114388;28;20103;-76
2023/07/06 10:23:45;;;;;;;9.55;5.03;;;20.20;82.00;;;;;;5113383;28;20059;-76
2023/07/06 10:26:28;;;;;;;9.27;5.25;;;20.20;79.70;;;;;;5113307;28;20027;-76
2023/07/06 10:28:59;;;;;;;12.77;6.13;;;20.20;80.30;;;;;;5114341;28;20080;-76
2023/07/06 10:31:51;;;;;;;8.50;5.57;;;20.40;80.50;;;;;;5113373;28;20041;-76
2023/07/06 10:34:40;;;;;;;12.30;4.97;;;20.40;76.00;;;;;;5113981;28;20020;-76
2023/07/06 10:37:07;;;;;;;10.40;4.50;;;20.30;75.80;;;;;;5113914;28;20058;-76
2023/07/06 10:39:32;;;;;;;6.68;3.33;;;20.20;75.80;;;;;;5113076;28;20031;-76
2023/07/06 10:42:18;;;;;;;8.20;3.65;;;20.10;75.30;;;;;;5113092;28;20032;-76
2023/07/06 10:44:48;;;;;;;9.38;3.97;;;20.20;76.40;;;;;;5114015;28;20042;-77
2023/07/06 10:47:35;;;;;;;6.95;3.47;;;20.30;77.60;;;;;;5114176;28;20027;-76
2023/07/06 10:50:22;;;;;;;8.85;4.38;;;20.50;76.10;;;;;;5112781;28;20058;-76
2023/07/06 10:53:17;;;;;;;6.80;4.15;;;20.60;77.70;;;;;;5113987;28;20028;-76
2023/07/06 10:55:58;;;;;;;10.80;3.80;;;20.60;75.60;;;;;;5113856;28;20050;-76
2023/07/06 10:58:36;;;;;;;9.07;3.60;;;20.70;75.40;;;;;;5113830;28;20017;-76
2023/07/06 11:01:12;;;;;;;6.50;3.30;;;20.80;73.90;;;;;;5113787;28;20020;-76
2023/07/06 11:03:42;;;;;;;5.90;3.20;;;20.80;74.30;;;;;;5112667;28;20119;-76
2023/07/06 11:06:14;;;;;;;6.22;2.55;;;20.70;76.60;;;;;;5112602;28;20088;-76
2023/07/06 11:09:10;;;;;;;8.20;3.35;;;20.90;74.40;;;;;;5112669;28;20065;-76
2023/07/06 11:11:54;;;;;;;5.78;2.90;;;21.20;75.50;;;;;;5112427;28;20100;-76
2023/07/06 11:14:35;;;;;;;9.00;3.47;;;21.30;73.60;;;;;;5112539;28;20035;-76
2023/07/06 11:17:03;;;;;;;9.63;3.13;;;21.20;71.40;;;;;;5112480;28;20046;-76
2023/07/06 11:19:51;;;;;;;5.45;2.50;;;21.30;74.00;;;;;;5112441;28;20024;-76
2023/07/06 11:22:21;;;;;;;5.78;2.70;;;21.40;71.60;;;;;;5112502;28;20023;-76
2023/07/06 11:24:54;;;;;;;4.85;2.33;;;21.40;68.60;;;;;;5112490;28;20058;-75
2023/07/06 11:27:30;;;;;;;7.38;3.05;;;21.40;68.80;;;;;;5112424;28;20012;-76
2023/07/06 11:30:24;;;;;;;4.10;2.63;;;21.40;71.70;;;;;;5112600;28;20221;-76
2023/07/06 11:32:59;;;;;;;5.65;2.55;;;21.60;68.50;;;;;;5113436;28;20020;-76
2023/07/06 11:35:34;;;;;;;5.65;2.30;;;21.60;70.60;;;;;;5112229;28;20101;-76
2023/07/06 11:38:12;;;;;;;5.75;2.10;;;21.50;69.60;;;;;;5113484;28;20045;-76
2023/07/06 11:40:55;;;;;;;4.38;2.00;;;21.60;69.60;;;;;;5113489;28;20031;-76
2023/07/06 11:43:56;;;;;;;5.43;2.33;;;21.60;66.20;;;;;;5112294;28;20029;-76
2023/07/06 11:46:44;;;;;;;6.88;2.28;;;21.80;68.90;;;;;;5113440;28;20051;-76
2023/07/06 11:49:34;;;;;;;3.88;2.17;;;21.80;68.10;;;;;;5112139;28;20027;-77
2023/07/06 11:52:05;;;;;;;4.93;2.22;;;21.90;66.30;;;;;;5112267;28;20046;-76
2023/07/06 11:54:49;;;;;;;3.95;1.90;;;22.10;68.60;;;;;;5096112;28;20024;-76
2023/07/06 11:57:29;;;;;;;3.67;1.90;;;22.20;68.70;;;;;;5097806;28;20059;-76
2023/07/06 12:00:48;;;;;;;5.53;2.33;;;22.30;66.30;;;;;;5112192;28;20081;-76
2023/07/06 12:03:09;;;;;;;5.95;2.13;;;22.20;66.40;;;;;;5112963;28;20024;-76
2023/07/06 12:05:37;;;;;;;3.90;2.10;;;22.00;66.00;;;;;;5113073;28;20035;-76
2023/07/06 12:08:19;;;;;;;4.43;2.33;;;22.10;65.20;;;;;;5113074;28;20047;-76
2023/07/06 12:10:48;;;;;;;5.70;2.20;;;22.10;67.50;;;;;;5112961;28;20016;-76
2023/07/06 12:13:21;;;;;;;3.42;2.17;;;22.10;65.80;;;;;;5112115;28;20081;-76
2023/07/06 12:15:48;;;;;;;4.43;2.05;;;21.90;65.30;;;;;;5111895;28;20375;-76
2023/07/06 12:18:15;;;;;;;4.68;1.98;;;21.80;65.10;;;;;;5111904;28;20042;-76
2023/07/06 12:20:42;;;;;;;4.25;2.00;;;21.80;64.80;;;;;;5112930;28;20024;-76
2023/07/06 12:23:12;;;;;;;7.53;2.33;;;21.80;65.40;;;;;;5111939;28;20024;-76
2023/07/06 12:25:41;;;;;;;3.97;1.90;;;21.80;65.90;;;;;;5115100;28;20023;-76
2023/07/06 12:28:15;;;;;;;4.65;1.85;;;21.60;65.10;;;;;;5115555;28;20031;-76
2023/07/06 12:30:43;;;;;;;8.52;2.20;;;21.60;65.40;;;;;;5115593;28;20024;-76
2023/07/06 12:33:13;;;;;;;4.63;2.08;;;21.40;65.30;;;;;;5116494;28;20073;-76
2023/07/06 12:35:40;;;;;;;5.35;2.47;;;21.40;65.60;;;;;;5116235;28;20062;-76
2023/07/06 12:38:12;;;;;;;5.43;2.03;;;21.50;66.50;;;;;;5116553;28;20042;-76
2023/07/06 12:40:38;;;;;;;5.35;2.47;;;21.70;67.70;;;;;;5115514;28;20023;-76
2023/07/06 12:43:04;;;;;;;3.83;2.10;;;21.80;66.50;;;;;;5098498;28;20020;-76
2023/07/06 12:45:31;;;;;;;6.63;2.70;;;22.00;66.50;;;;;;5115224;28;20027;-76
2023/07/06 12:48:05;;;;;;;5.07;2.10;;;22.20;65.10;;;;;;5115226;28;20095;-76
2023/07/06 12:50:36;;;;;;;6.40;2.00;;;22.20;64.40;;;;;;5098273;28;20028;-74
2023/07/06 12:53:13;;;;;;;4.82;1.90;;;22.30;65.20;;;;;;5115174;28;20016;-74
2023/07/06 12:55:45;;;;;;;3.88;1.90;;;22.50;66.50;;;;;;5116090;28;20020;-76
2023/07/06 12:58:35;;;;;;;6.97;2.10;;;22.60;64.80;;;;;;5115041;28;20534;-76